Time;durP1;ratioP1;P1;durP2;ratioP2;P2;SDS_P1;SDS_P2;PMS_P1;PMS_P2;Temp;Humidity;BMP_temperature;BMP_pressure;BME280_temperature;BME280_humidity;BME280_pressure;Samples;Min_cycle;Max_cycle;Signal;HPM_P1;HPM_P2
2023/01/19 00:01:09;;;;;;;36.90;13.82;;;-1.80;99.90;;;;;;5045241;28;20077;-65
2023/01/19 00:03:35;;;;;;;34.00;13.23;;;-1.80;99.90;;;;;;5045517;28;20028;-67
2023/01/19 00:06:08;;;;;;;35.05;13.55;;;-1.80;99.90;;;;;;5045909;28;20029;-68
2023/01/19 00:08:34;;;;;;;28.27;12.45;;;-1.80;99.90;;;;;;5045645;28;20037;-65
2023/01/19 00:11:00;;;;;;;30.65;13.15;;;-1.80;99.90;;;;;;5046415;28;20397;-67
2023/01/19 00:13:26;;;;;;;31.50;12.95;;;-1.80;99.90;;;;;;5046241;28;20029;-68
2023/01/19 00:15:52;;;;;;;28.25;12.80;;;-1.80;99.90;;;;;;5045954;28;20079;-68
2023/01/19 00:18:17;;;;;;;35.97;13.18;;;-1.80;99.90;;;;;;5045690;28;20480;-67
2023/01/19 00:20:46;;;;;;;34.35;13.68;;;-1.80;99.90;;;;;;5042382;28;20025;-67
2023/01/19 00:23:13;;;;;;;33.95;13.55;;;-1.90;99.90;;;;;;5044545;28;20094;-68
2023/01/19 00:25:41;;;;;;;36.00;13.48;;;-1.90;99.90;;;;;;5047885;28;20036;-67
2023/01/19 00:28:10;;;;;;;34.25;13.35;;;-2.00;99.90;;;;;;5045716;28;20025;-68
2023/01/19 00:30:36;;;;;;;38.42;14.43;;;-2.10;99.90;;;;;;5046114;28;20666;-67
2023/01/19 00:33:02;;;;;;;36.45;13.80;;;-2.10;99.90;;;;;;5044339;28;20068;-68
2023/01/19 00:35:28;;;;;;;34.58;13.93;;;-2.20;99.90;;;;;;5045601;28;20048;-68
2023/01/19 00:37:55;;;;;;;37.38;13.63;;;-2.20;99.90;;;;;;5047557;28;20041;-68
2023/01/19 00:40:21;;;;;;;36.10;14.48;;;-2.10;99.90;;;;;;5047341;28;20466;-66
2023/01/19 00:42:47;;;;;;;33.60;13.93;;;-2.20;99.90;;;;;;5046613;28;20051;-68
2023/01/19 00:45:18;;;;;;;39.80;14.68;;;-2.20;99.90;;;;;;5048111;28;20033;-68
2023/01/19 00:47:45;;;;;;;36.80;14.55;;;-2.20;99.90;;;;;;5038918;28;20029;-68
2023/01/19 00:50:12;;;;;;;37.92;14.25;;;-2.20;99.90;;;;;;5045884;28;20072;-67
2023/01/19 00:52:41;;;;;;;39.80;14.60;;;-2.30;99.90;;;;;;5045922;28;20025;-67
2023/01/19 00:55:09;;;;;;;36.97;13.85;;;-2.30;99.90;;;;;;5045594;28;20025;-68
2023/01/19 00:57:34;;;;;;;36.33;13.32;;;-2.40;99.90;;;;;;5045542;28;20529;-67
2023/01/19 01:00:00;;;;;;;38.83;14.38;;;-2.40;99.90;;;;;;5044432;28;20040;-65
2023/01/19 01:02:26;;;;;;;33.83;13.93;;;-2.40;99.90;;;;;;5043446;28;20025;-71
2023/01/19 01:04:53;;;;;;;35.60;14.25;;;-2.40;99.90;;;;;;5044936;28;20063;-68
2023/01/19 01:07:23;;;;;;;39.05;14.07;;;-2.50;99.90;;;;;;5044327;28;20108;-68
2023/01/19 01:09:49;;;;;;;35.40;13.88;;;-2.50;99.90;;;;;;5046543;28;20590;-66
2023/01/19 01:12:15;;;;;;;37.53;13.73;;;-2.40;99.90;;;;;;5046897;28;20093;-68
2023/01/19 01:14:40;;;;;;;34.17;13.80;;;-2.40;99.90;;;;;;5047062;28;20025;-67
2023/01/19 01:17:10;;;;;;;42.63;14.57;;;-2.40;99.90;;;;;;5046163;28;20065;-67
2023/01/19 01:19:37;;;;;;;37.45;14.68;;;-2.50;99.90;;;;;;5046382;28;20025;-66
2023/01/19 01:22:03;;;;;;;39.15;14.45;;;-2.50;99.90;;;;;;5047457;28;20040;-67
2023/01/19 01:24:29;;;;;;;44.78;15.05;;;-2.50;99.90;;;;;;5047456;28;20029;-68
2023/01/19 01:26:55;;;;;;;37.63;14.23;;;-2.40;99.90;;;;;;5046482;28;20044;-67
2023/01/19 01:29:20;;;;;;;36.67;14.68;;;-2.40;99.90;;;;;;5047380;28;20036;-65
2023/01/19 01:31:46;;;;;;;42.70;15.02;;;-2.50;99.90;;;;;;5046757;28;20071;-68
2023/01/19 01:34:12;;;;;;;35.63;14.35;;;-2.40;99.90;;;;;;5044936;28;20033;-68
2023/01/19 01:36:37;;;;;;;38.17;14.13;;;-2.50;99.90;;;;;;5044148;28;20041;-68
2023/01/19 01:39:05;;;;;;;39.75;14.10;;;-2.50;99.90;;;;;;5042021;28;20077;-67
2023/01/19 01:41:31;;;;;;;39.95;13.88;;;-2.50;99.90;;;;;;5042012;28;20037;-70
2023/01/19 01:43:58;;;;;;;35.45;13.63;;;-2.60;99.90;;;;;;5044850;28;20051;-67
2023/01/19 01:46:26;;;;;;;34.58;13.98;;;-2.60;99.90;;;;;;5048416;28;20397;-66
2023/01/19 01:49:00;;;;;;;40.45;14.43;;;-2.60;99.90;;;;;;5049802;28;20541;-68
2023/01/19 01:51:33;;;;;;;36.97;14.02;;;-2.70;99.90;;;;;;5045650;28;20770;-68
2023/01/19 01:54:28;;;;;;;39.58;14.02;;;-2.70;99.90;;;;;;5049666;28;20047;-67
2023/01/19 01:56:58;;;;;;;32.88;13.15;;;-2.70;99.90;;;;;;5055779;28;20502;-67
2023/01/19 01:59:33;;;;;;;34.07;13.83;;;-2.80;99.90;;;;;;5049652;28;20264;-68
2023/01/19 02:05:14;;;;;;;35.47;14.05;;;-2.80;99.90;;;;;;5047469;28;20139;-67
2023/01/19 02:13:21;;;;;;;37.03;13.90;;;-2.80;99.90;;;;;;5045858;28;20043;-67
2023/01/19 02:15:52;;;;;;;44.38;15.10;;;-2.70;99.90;;;;;;5048707;28;20048;-67
2023/01/19 02:18:20;;;;;;;40.17;14.70;;;-2.80;99.90;;;;;;5047620;28;20064;-67
2023/01/19 02:21:21;;;;;;;40.13;15.48;;;-2.70;99.90;;;;;;5047324;28;20132;-68
2023/01/19 02:23:55;;;;;;;43.22;13.73;;;-2.70;99.90;;;;;;5043961;28;20025;-65
2023/01/19 02:26:21;;;;;;;42.30;15.10;;;-2.70;99.90;;;;;;5049233;28;20025;-67
2023/01/19 02:28:53;;;;;;;41.90;15.23;;;-2.70;99.90;;;;;;5047613;28;20035;-68
2023/01/19 02:31:19;;;;;;;43.00;15.68;;;-2.80;99.90;;;;;;5047778;28;20481;-67
2023/01/19 02:33:45;;;;;;;43.20;15.77;;;-2.80;99.90;;;;;;5046431;28;20021;-68
2023/01/19 02:36:14;;;;;;;38.45;14.82;;;-2.80;99.90;;;;;;5047093;28;20385;-67
2023/01/19 02:38:43;;;;;;;42.63;15.35;;;-2.70;99.90;;;;;;5042660;28;20397;-68
2023/01/19 02:41:14;;;;;;;38.67;14.63;;;-2.70;99.90;;;;;;5046695;28;20033;-67
2023/01/19 02:43:41;;;;;;;36.70;14.45;;;-2.70;99.90;;;;;;5045948;28;20037;-67
2023/01/19 02:46:07;;;;;;;35.95;14.23;;;-2.80;99.90;;;;;;5046062;28;20034;-71
2023/01/19 02:48:33;;;;;;;47.75;15.00;;;-2.80;99.90;;;;;;5045749;28;20036;-70
2023/01/19 02:51:14;;;;;;;39.05;14.68;;;-2.80;99.90;;;;;;5047783;28;20466;-67
2023/01/19 02:54:08;;;;;;;42.90;14.70;;;-2.80;99.90;;;;;;5045931;28;20541;-68
2023/01/19 02:57:01;;;;;;;42.17;13.98;;;-2.90;99.90;;;;;;5034259;28;20424;-70
2023/01/19 02:59:56;;;;;;;38.85;13.88;;;-2.90;99.90;;;;;;5045213;28;20171;-67
2023/01/19 03:02:49;;;;;;;34.95;13.73;;;-2.90;99.90;;;;;;5046381;28;20025;-67
2023/01/19 03:05:39;;;;;;;39.08;13.23;;;-2.80;99.90;;;;;;5045389;28;20037;-67
2023/01/19 03:08:04;;;;;;;33.10;13.00;;;-2.80;99.90;;;;;;5046399;28;20036;-65
2023/01/19 03:10:33;;;;;;;36.45;13.55;;;-2.80;99.90;;;;;;5048100;28;20029;-66
2023/01/19 03:13:10;;;;;;;38.45;13.57;;;-2.80;99.90;;;;;;5045768;28;20044;-67
2023/01/19 03:16:02;;;;;;;36.08;13.43;;;-2.80;99.90;;;;;;5046227;28;20104;-72
2023/01/19 03:18:32;;;;;;;41.42;14.05;;;-2.80;99.90;;;;;;5043623;28;20509;-69
2023/01/19 03:21:02;;;;;;;35.03;13.40;;;-2.70;99.90;;;;;;5048151;28;20075;-67
2023/01/19 03:23:30;;;;;;;46.15;14.60;;;-2.70;99.90;;;;;;5045317;28;20033;-69
2023/01/19 03:25:59;;;;;;;33.85;13.07;;;-2.70;99.90;;;;;;5047972;28;20025;-67
2023/01/19 03:28:28;;;;;;;39.13;13.57;;;-2.70;99.90;;;;;;5048978;28;20481;-67
2023/01/19 03:31:17;;;;;;;35.25;13.77;;;-2.70;99.90;;;;;;5048458;28;20658;-68
2023/01/19 03:33:48;;;;;;;39.65;14.27;;;-2.70;99.90;;;;;;5042810;28;20497;-68
2023/01/19 03:36:29;;;;;;;35.70;14.23;;;-2.70;99.90;;;;;;5049041;28;20029;-67
2023/01/19 03:38:56;;;;;;;35.03;13.77;;;-2.70;99.90;;;;;;5043195;28;20282;-70
2023/01/19 03:41:24;;;;;;;38.13;13.90;;;-2.80;99.90;;;;;;5041224;28;20057;-67
2023/01/19 03:43:52;;;;;;;34.28;13.15;;;-2.80;99.90;;;;;;5049555;28;20104;-67
2023/01/19 03:46:19;;;;;;;40.65;13.98;;;-2.80;99.90;;;;;;5044681;28;20028;-68
2023/01/19 03:48:46;;;;;;;40.33;14.20;;;-2.90;99.90;;;;;;5041353;28;20086;-68
2023/01/19 03:51:13;;;;;;;36.00;14.45;;;-2.90;99.90;;;;;;5042427;28;20531;-67
2023/01/19 03:53:39;;;;;;;41.35;15.48;;;-2.90;99.90;;;;;;5044510;28;20037;-70
2023/01/19 03:56:06;;;;;;;40.95;14.35;;;-2.90;99.90;;;;;;5045687;28;20086;-68
2023/01/19 03:58:32;;;;;;;38.58;13.85;;;-2.90;99.90;;;;;;5043231;28;20036;-68
2023/01/19 04:00:57;;;;;;;42.47;15.18;;;-2.80;99.90;;;;;;5046658;28;20595;-68
2023/01/19 04:03:23;;;;;;;38.63;14.13;;;-2.80;99.90;;;;;;5047119;28;20052;-67
2023/01/19 04:05:48;;;;;;;34.55;13.10;;;-2.80;99.90;;;;;;5047087;28;20032;-67
2023/01/19 04:08:14;;;;;;;31.58;13.70;;;-2.80;99.90;;;;;;5047054;28;20114;-68
2023/01/19 04:10:40;;;;;;;37.92;14.50;;;-2.80;99.90;;;;;;5044799;28;20028;-69
2023/01/19 04:13:05;;;;;;;35.15;14.90;;;-2.90;99.90;;;;;;5048093;28;20039;-67
2023/01/19 04:15:31;;;;;;;37.55;15.15;;;-2.90;99.90;;;;;;5045776;28;20044;-69
2023/01/19 04:17:58;;;;;;;42.78;14.25;;;-3.00;99.90;;;;;;5044949;28;20033;-68
2023/01/19 04:20:26;;;;;;;43.10;15.52;;;-3.00;99.90;;;;;;5046448;28;20109;-66
2023/01/19 04:22:51;;;;;;;39.03;14.10;;;-3.00;99.90;;;;;;5045780;28;20469;-68
2023/01/19 04:25:17;;;;;;;33.13;14.02;;;-3.00;99.90;;;;;;5040547;28;20033;-66
2023/01/19 04:27:42;;;;;;;36.72;14.15;;;-3.00;99.90;;;;;;5046698;28;20041;-66
2023/01/19 04:30:09;;;;;;;42.15;14.40;;;-2.90;99.90;;;;;;5044674;28;20040;-69
2023/01/19 04:32:35;;;;;;;37.30;14.52;;;-2.90;99.90;;;;;;5045533;28;20045;-67
2023/01/19 04:35:01;;;;;;;38.30;14.43;;;-2.80;99.90;;;;;;5045879;28;20035;-67
2023/01/19 04:37:26;;;;;;;37.20;14.48;;;-2.80;99.90;;;;;;5045965;28;20047;-68
2023/01/19 04:39:52;;;;;;;40.67;14.27;;;-2.90;99.90;;;;;;5044552;28;20032;-68
2023/01/19 04:42:18;;;;;;;35.28;14.05;;;-2.90;99.90;;;;;;5046577;28;20120;-66
2023/01/19 04:44:43;;;;;;;40.83;13.80;;;-2.90;99.90;;;;;;5045443;28;20588;-66
2023/01/19 04:47:09;;;;;;;34.05;13.40;;;-2.90;99.90;;;;;;5045295;28;20453;-68
2023/01/19 04:49:37;;;;;;;36.53;14.13;;;-3.00;99.90;;;;;;5046649;28;20033;-68
2023/01/19 04:52:05;;;;;;;35.25;14.18;;;-3.00;99.90;;;;;;5038572;28;20478;-68
2023/01/19 04:54:30;;;;;;;36.38;14.02;;;-3.10;99.90;;;;;;5047645;28;20104;-68
2023/01/19 04:56:56;;;;;;;38.45;13.20;;;-3.10;99.90;;;;;;5046129;28;20149;-67
2023/01/19 04:59:22;;;;;;;38.25;14.32;;;-3.10;99.90;;;;;;5045422;28;20041;-68
2023/01/19 05:01:47;;;;;;;37.22;14.02;;;-3.10;99.90;;;;;;5045130;28;20092;-68
2023/01/19 05:04:13;;;;;;;45.13;15.00;;;-3.10;99.90;;;;;;5045837;28;20070;-68
2023/01/19 05:06:39;;;;;;;37.88;14.77;;;-3.00;99.90;;;;;;5046077;28;20421;-68
2023/01/19 05:09:06;;;;;;;38.70;14.27;;;-3.00;99.90;;;;;;5046358;28;20059;-66
2023/01/19 05:11:32;;;;;;;37.35;13.93;;;-3.00;99.90;;;;;;5046512;28;20474;-68
2023/01/19 05:13:58;;;;;;;36.10;13.35;;;-3.00;99.90;;;;;;5044003;28;20132;-68
2023/01/19 05:16:23;;;;;;;38.53;14.07;;;-3.00;99.90;;;;;;5046605;28;20108;-69
2023/01/19 05:18:49;;;;;;;36.13;14.38;;;-2.90;99.90;;;;;;5046689;28;20044;-68
2023/01/19 05:21:15;;;;;;;36.78;14.23;;;-2.90;99.90;;;;;;5049602;28;20036;-68
2023/01/19 05:23:40;;;;;;;38.47;14.07;;;-2.90;99.90;;;;;;5049429;28;20036;-69
2023/01/19 05:26:06;;;;;;;38.75;13.90;;;-2.90;99.90;;;;;;5047821;28;20426;-68
2023/01/19 05:28:32;;;;;;;37.80;13.70;;;-2.90;99.90;;;;;;5048172;28;20060;-67
2023/01/19 05:30:58;;;;;;;39.03;13.55;;;-2.90;99.90;;;;;;5048257;28;20087;-68
2023/01/19 05:33:24;;;;;;;36.75;14.25;;;-2.90;99.90;;;;;;5050307;28;20111;-66
2023/01/19 05:35:50;;;;;;;35.90;13.25;;;-2.90;99.90;;;;;;5049266;28;20064;-68
2023/01/19 05:38:16;;;;;;;37.50;13.65;;;-3.00;99.90;;;;;;5045205;28;20037;-69
2023/01/19 05:40:42;;;;;;;37.33;13.65;;;-3.00;99.90;;;;;;5051208;28;20062;-69
2023/01/19 05:43:09;;;;;;;33.42;12.80;;;-3.00;99.90;;;;;;5050143;28;20071;-68
2023/01/19 05:45:35;;;;;;;35.88;13.98;;;-3.10;99.90;;;;;;5051553;28;20060;-68
2023/01/19 05:48:00;;;;;;;35.33;13.98;;;-3.10;99.90;;;;;;5049598;28;20412;-67
2023/01/19 05:50:26;;;;;;;37.75;14.13;;;-3.10;99.90;;;;;;5051197;28;20632;-67
2023/01/19 05:52:52;;;;;;;36.97;14.43;;;-3.00;99.90;;;;;;5047994;28;20056;-68
2023/01/19 05:55:18;;;;;;;42.13;14.85;;;-3.00;99.90;;;;;;5048992;28;20117;-67
2023/01/19 05:57:44;;;;;;;38.38;14.13;;;-3.00;99.90;;;;;;5050826;28;20033;-70
2023/01/19 06:00:10;;;;;;;40.92;14.90;;;-3.00;99.90;;;;;;5050923;28;20044;-68
2023/01/19 06:02:36;;;;;;;35.55;14.05;;;-2.90;99.90;;;;;;5050071;28;20351;-68
2023/01/19 06:05:03;;;;;;;36.20;14.18;;;-2.90;99.90;;;;;;5049069;28;20040;-66
2023/01/19 06:07:30;;;;;;;35.80;13.88;;;-2.90;99.90;;;;;;5050163;28;20040;-67
2023/01/19 06:09:56;;;;;;;38.00;13.77;;;-2.80;99.90;;;;;;5049045;28;20040;-66
2023/01/19 06:12:22;;;;;;;33.67;13.68;;;-2.80;99.90;;;;;;5050124;28;20040;-68
2023/01/19 06:14:47;;;;;;;35.17;13.75;;;-2.80;99.90;;;;;;5048602;28;20040;-69
2023/01/19 06:17:13;;;;;;;38.40;13.98;;;-2.90;99.90;;;;;;5050364;28;20033;-68
2023/01/19 06:19:39;;;;;;;30.73;13.13;;;-2.90;99.90;;;;;;5046815;28;20040;-68
2023/01/19 06:22:05;;;;;;;37.17;13.27;;;-2.90;99.90;;;;;;5047957;28;20020;-67
2023/01/19 06:24:31;;;;;;;35.60;13.18;;;-2.90;99.90;;;;;;5042942;28;20400;-67
2023/01/19 06:26:59;;;;;;;34.35;13.07;;;-3.00;99.90;;;;;;5045759;28;20045;-68
2023/01/19 06:29:28;;;;;;;36.40;13.27;;;-3.00;99.90;;;;;;5046575;28;20037;-66
2023/01/19 06:31:54;;;;;;;35.88;12.18;;;-3.00;99.90;;;;;;5047382;28;20041;-67
2023/01/19 06:34:20;;;;;;;39.13;13.88;;;-3.00;99.90;;;;;;5048544;28;20104;-67
2023/01/19 06:36:46;;;;;;;37.40;13.23;;;-3.00;99.90;;;;;;5048004;28;20588;-63
2023/01/19 06:39:12;;;;;;;37.58;13.23;;;-3.10;99.90;;;;;;5049828;28;20044;-63
2023/01/19 06:41:38;;;;;;;40.33;14.85;;;-3.10;99.90;;;;;;5047949;28;20049;-62
2023/01/19 06:44:04;;;;;;;34.50;14.10;;;-3.10;99.90;;;;;;5047677;28;20037;-63
2023/01/19 06:46:30;;;;;;;41.20;14.80;;;-3.10;99.90;;;;;;5049316;28;20048;-64
2023/01/19 06:48:56;;;;;;;39.45;14.23;;;-3.20;99.90;;;;;;5046126;28;20037;-63
2023/01/19 06:51:22;;;;;;;37.00;13.25;;;-3.20;99.90;;;;;;5050010;28;20087;-62
2023/01/19 06:53:48;;;;;;;36.25;12.93;;;-3.20;99.90;;;;;;5046348;28;20460;-62
2023/01/19 06:56:13;;;;;;;39.97;13.63;;;-3.10;99.90;;;;;;5047396;28;20119;-62
2023/01/19 06:58:40;;;;;;;31.48;13.07;;;-3.00;99.90;;;;;;5050095;28;20108;-63
2023/01/19 07:01:07;;;;;;;34.80;13.18;;;-3.00;99.90;;;;;;5045646;28;20026;-62
2023/01/19 07:03:34;;;;;;;43.67;14.05;;;-2.90;99.90;;;;;;5047143;28;20029;-63
2023/01/19 07:06:05;;;;;;;34.50;13.10;;;-2.80;99.90;;;;;;5045473;28;20029;-63
2023/01/19 07:08:32;;;;;;;32.35;13.00;;;-2.70;99.90;;;;;;5043155;28;20033;-63
2023/01/19 07:11:15;;;;;;;32.67;12.55;;;-2.70;99.90;;;;;;5043968;28;20469;-63
2023/01/19 07:13:43;;;;;;;29.13;12.05;;;-2.80;99.90;;;;;;5048364;28;20064;-62
2023/01/19 07:16:13;;;;;;;32.88;12.43;;;-3.00;99.90;;;;;;5045166;28;20100;-63
2023/01/19 07:18:39;;;;;;;32.43;11.60;;;-3.20;99.90;;;;;;5047222;28;20481;-62
2023/01/19 07:21:06;;;;;;;33.30;13.45;;;-3.30;99.90;;;;;;5048377;28;20029;-62
2023/01/19 07:23:32;;;;;;;38.50;13.10;;;-3.30;99.90;;;;;;5048270;28;20115;-63
2023/01/19 07:26:00;;;;;;;32.42;12.63;;;-3.20;99.90;;;;;;5045521;28;20542;-63
2023/01/19 07:28:29;;;;;;;36.20;13.80;;;-3.20;99.90;;;;;;5047393;28;20128;-63
2023/01/19 07:30:56;;;;;;;38.63;13.20;;;-3.10;99.90;;;;;;5048820;28;20025;-62
2023/01/19 07:33:23;;;;;;;32.05;12.98;;;-3.10;99.90;;;;;;5040185;28;20098;-62
2023/01/19 07:35:52;;;;;;;35.83;13.23;;;-3.10;99.90;;;;;;5044453;28;20025;-62
2023/01/19 07:38:18;;;;;;;34.25;12.77;;;-3.20;99.90;;;;;;5049376;28;20041;-63
2023/01/19 07:40:47;;;;;;;36.78;13.13;;;-3.10;99.90;;;;;;5049390;28;20149;-63
2023/01/19 07:43:13;;;;;;;38.85;13.65;;;-3.20;99.90;;;;;;5047715;28;20056;-62
2023/01/19 07:45:39;;;;;;;36.33;14.90;;;-3.20;99.90;;;;;;5048396;28;20033;-63
2023/01/19 07:48:05;;;;;;;37.65;13.98;;;-3.20;99.90;;;;;;5048341;28;20493;-63
2023/01/19 07:50:31;;;;;;;33.53;13.95;;;-3.20;99.90;;;;;;5048971;28;20029;-63
2023/01/19 07:52:56;;;;;;;38.85;13.57;;;-3.10;99.90;;;;;;5048201;28;20435;-63
2023/01/19 07:55:22;;;;;;;36.00;13.15;;;-3.10;99.90;;;;;;5048218;28;20043;-63
2023/01/19 07:57:49;;;;;;;32.97;13.50;;;-3.00;99.90;;;;;;5049188;28;20373;-63
2023/01/19 08:00:20;;;;;;;31.23;11.95;;;-3.00;99.90;;;;;;5048560;28;20040;-63
2023/01/19 08:02:48;;;;;;;33.38;12.27;;;-3.00;99.90;;;;;;5040764;28;20135;-63
2023/01/19 08:05:16;;;;;;;38.10;12.95;;;-2.90;99.90;;;;;;5046757;28;20154;-62
2023/01/19 08:07:41;;;;;;;31.13;11.90;;;-2.90;99.90;;;;;;5047291;28;20145;-62
2023/01/19 08:10:08;;;;;;;34.53;12.52;;;-3.00;99.90;;;;;;5046627;28;20112;-63
2023/01/19 08:12:34;;;;;;;36.13;14.38;;;-2.90;99.90;;;;;;5048745;28;20122;-63
2023/01/19 08:14:59;;;;;;;38.17;13.20;;;-3.00;99.90;;;;;;5047104;28;20099;-63
2023/01/19 08:17:25;;;;;;;34.42;12.68;;;-2.90;99.90;;;;;;5048588;28;20481;-63
2023/01/19 08:19:50;;;;;;;33.40;12.32;;;-2.80;99.90;;;;;;5048739;28;20156;-63
2023/01/19 08:22:16;;;;;;;29.20;10.95;;;-2.80;99.90;;;;;;5045216;28;20537;-62
2023/01/19 08:24:42;;;;;;;25.58;9.95;;;-2.70;99.90;;;;;;5046702;28;20061;-62
2023/01/19 08:27:08;;;;;;;33.13;10.70;;;-2.70;99.90;;;;;;5047931;28;20056;-61
2023/01/19 08:29:35;;;;;;;24.33;10.00;;;-2.70;99.90;;;;;;5046247;28;20036;-61
2023/01/19 08:32:01;;;;;;;26.33;10.70;;;-2.60;99.90;;;;;;5041081;28;20116;-62
2023/01/19 08:34:29;;;;;;;23.75;10.27;;;-2.60;99.90;;;;;;5044878;28;20037;-62
2023/01/19 08:36:55;;;;;;;29.00;10.75;;;-2.60;99.90;;;;;;5045246;28;20064;-62
2023/01/19 08:39:22;;;;;;;27.02;10.52;;;-2.50;99.90;;;;;;5047252;28;20036;-61
2023/01/19 08:41:52;;;;;;;28.63;9.88;;;-2.40;99.90;;;;;;5047690;28;20485;-62
2023/01/19 08:44:17;;;;;;;26.88;10.75;;;-2.40;99.90;;;;;;5036807;28;20029;-61
2023/01/19 08:46:43;;;;;;;24.65;10.27;;;-2.40;99.90;;;;;;5046795;28;20036;-62
2023/01/19 08:49:09;;;;;;;29.70;11.70;;;-2.50;99.90;;;;;;5046646;28;20112;-62
2023/01/19 08:51:34;;;;;;;26.77;10.27;;;-2.50;99.90;;;;;;5048125;28;20024;-61
2023/01/19 08:54:00;;;;;;;30.75;11.38;;;-2.50;99.90;;;;;;5045408;28;20455;-61
2023/01/19 08:56:26;;;;;;;30.60;11.23;;;-2.40;99.90;;;;;;5044228;28;20485;-62
2023/01/19 08:58:51;;;;;;;33.33;11.15;;;-2.20;99.90;;;;;;5047353;28;20040;-62
2023/01/19 09:01:19;;;;;;;29.98;11.45;;;-2.20;99.90;;;;;;5047405;28;20480;-61
2023/01/19 09:03:45;;;;;;;34.65;11.52;;;-2.20;99.90;;;;;;5047973;28;20029;-63
2023/01/19 09:06:13;;;;;;;28.77;11.07;;;-2.10;99.90;;;;;;5046346;28;20029;-61
2023/01/19 09:08:39;;;;;;;35.40;11.30;;;-2.00;99.90;;;;;;5046592;28;20040;-62
2023/01/19 09:11:12;;;;;;;36.33;11.50;;;-2.00;99.90;;;;;;5045869;28;20029;-63
2023/01/19 09:13:38;;;;;;;28.90;11.63;;;-1.90;99.90;;;;;;5047066;28;20074;-62
2023/01/19 09:16:06;;;;;;;26.52;10.55;;;-1.90;99.90;;;;;;5046790;28;20143;-62
2023/01/19 09:18:33;;;;;;;27.60;10.88;;;-1.80;99.90;;;;;;5047820;28;20371;-62
2023/01/19 09:20:59;;;;;;;25.50;10.68;;;-1.70;99.90;;;;;;5046102;28;20029;-62
2023/01/19 09:23:25;;;;;;;28.10;10.88;;;-1.50;99.90;;;;;;5047746;28;20024;-62
2023/01/19 09:25:56;;;;;;;30.55;11.60;;;-1.40;99.90;;;;;;5047702;28;20032;-62
2023/01/19 09:28:22;;;;;;;27.38;11.23;;;-1.40;99.90;;;;;;5040550;28;20037;-63
2023/01/19 09:30:48;;;;;;;27.45;11.10;;;-1.40;99.90;;;;;;5046547;28;20389;-63
2023/01/19 09:33:15;;;;;;;30.02;10.85;;;-1.30;99.90;;;;;;5046410;28;20841;-63
2023/01/19 09:35:43;;;;;;;24.13;10.57;;;-1.30;99.90;;;;;;5048062;28;20029;-62
2023/01/19 09:38:09;;;;;;;28.15;10.52;;;-1.30;99.90;;;;;;5046855;28;20033;-62
2023/01/19 09:40:52;;;;;;;29.60;10.80;;;-1.30;99.90;;;;;;5046885;28;20056;-62
2023/01/19 09:43:39;;;;;;;26.40;10.38;;;-1.30;99.90;;;;;;5046882;28;20651;-63
2023/01/19 09:46:15;;;;;;;27.77;10.30;;;-1.10;99.90;;;;;;5046668;28;20037;-62
2023/01/19 09:48:51;;;;;;;25.27;9.70;;;-1.10;99.90;;;;;;5047727;28;20108;-61
2023/01/19 09:51:31;;;;;;;27.55;9.80;;;-1.20;99.90;;;;;;5045733;28;20176;-63
2023/01/19 09:54:17;;;;;;;22.15;8.60;;;-1.30;99.90;;;;;;5047422;28;20033;-63
2023/01/19 09:56:44;;;;;;;25.13;9.73;;;-1.30;99.90;;;;;;5041667;28;20052;-62
2023/01/19 09:59:20;;;;;;;23.75;8.82;;;-1.30;99.90;;;;;;5046144;28;20033;-62
2023/01/19 10:02:05;;;;;;;27.05;9.27;;;-1.30;99.90;;;;;;5047730;28;20028;-63
2023/01/19 10:04:39;;;;;;;24.55;9.00;;;-1.20;99.90;;;;;;5047117;28;20375;-63
2023/01/19 10:07:13;;;;;;;25.30;8.52;;;-1.20;99.90;;;;;;5049188;28;20514;-63
2023/01/19 10:10:03;;;;;;;24.25;8.57;;;-1.20;99.90;;;;;;5050567;28;20434;-63
2023/01/19 10:12:46;;;;;;;19.23;7.80;;;-1.20;99.90;;;;;;5051213;28;20052;-63
2023/01/19 10:15:27;;;;;;;21.55;7.82;;;-1.10;99.90;;;;;;5050953;28;20072;-63
2023/01/19 10:18:02;;;;;;;22.05;8.60;;;-0.90;99.90;;;;;;5045308;28;20091;-63
2023/01/19 10:20:39;;;;;;;20.27;7.88;;;-0.70;99.90;;;;;;5046394;28;20025;-63
2023/01/19 10:23:31;;;;;;;21.83;8.50;;;-0.60;99.90;;;;;;5049440;28;20104;-63
2023/01/19 10:25:59;;;;;;;19.77;7.68;;;-0.40;99.90;;;;;;5044624;28;20029;-63
2023/01/19 10:28:26;;;;;;;18.52;7.72;;;-0.30;99.90;;;;;;5050308;28;20112;-63
2023/01/19 10:30:54;;;;;;;19.52;6.57;;;-0.20;99.90;;;;;;5050800;28;20454;-63
2023/01/19 10:33:20;;;;;;;17.13;6.63;;;-0.40;99.90;;;;;;5048855;28;20021;-62
2023/01/19 10:35:47;;;;;;;15.30;5.78;;;-0.60;99.90;;;;;;5050539;28;20017;-62
2023/01/19 10:38:18;;;;;;;16.55;6.38;;;-0.50;99.90;;;;;;5050085;28;20087;-63
2023/01/19 10:40:57;;;;;;;22.73;7.20;;;-0.40;99.90;;;;;;5049383;28;20025;-63
2023/01/19 10:43:41;;;;;;;20.13;7.40;;;-0.30;99.90;;;;;;5049273;28;20053;-64
2023/01/19 10:46:37;;;;;;;16.55;6.43;;;-0.30;99.90;;;;;;5043667;28;20037;-62
2023/01/19 10:49:03;;;;;;;15.68;6.50;;;-0.30;99.90;;;;;;5043189;28;20064;-63
2023/01/19 10:51:29;;;;;;;15.35;6.20;;;-0.20;99.90;;;;;;5049478;28;20074;-63
2023/01/19 10:54:00;;;;;;;14.32;6.65;;;-0.30;99.90;;;;;;5050327;28;20037;-63
2023/01/19 10:56:33;;;;;;;15.48;6.30;;;-0.20;99.90;;;;;;5050014;28;20032;-63
2023/01/19 10:59:02;;;;;;;16.25;6.60;;;-0.10;99.90;;;;;;5050225;28;20067;-64
2023/01/19 11:01:29;;;;;;;15.82;6.63;;;-0.10;99.90;;;;;;5049300;28;20112;-62
2023/01/19 11:04:04;;;;;;;14.95;6.40;;;0.00;99.90;;;;;;5050069;28;20504;-63
2023/01/19 11:06:31;;;;;;;13.30;6.25;;;0.10;99.90;;;;;;5050440;28;20039;-63
2023/01/19 11:09:20;;;;;;;19.30;6.25;;;0.10;99.90;;;;;;5049815;28;20044;-63
2023/01/19 11:11:51;;;;;;;16.65;6.63;;;-0.10;99.90;;;;;;5049259;28;20040;-63
2023/01/19 11:14:20;;;;;;;15.50;6.47;;;-0.20;99.90;;;;;;5049855;28;20040;-63
2023/01/19 11:16:54;;;;;;;22.05;6.95;;;-0.30;99.90;;;;;;5050064;28;20017;-62
2023/01/19 11:19:26;;;;;;;18.67;6.90;;;-0.30;99.90;;;;;;5041870;28;20230;-63
2023/01/19 11:21:52;;;;;;;14.38;6.13;;;-0.30;99.90;;;;;;5048860;28;20398;-63
2023/01/19 11:24:19;;;;;;;14.88;6.45;;;-0.20;99.90;;;;;;5047746;28;20024;-63
2023/01/19 11:26:48;;;;;;;18.88;6.90;;;-0.20;99.90;;;;;;5049996;28;20144;-63
2023/01/19 11:29:21;;;;;;;15.40;6.43;;;0.00;99.90;;;;;;5048780;28;20017;-64
2023/01/19 11:31:48;;;;;;;16.15;6.72;;;0.00;99.90;;;;;;5048889;28;20029;-63
2023/01/19 11:34:32;;;;;;;14.85;6.38;;;0.10;99.90;;;;;;5048838;28;20032;-63
2023/01/19 11:37:04;;;;;;;18.35;6.70;;;0.10;99.90;;;;;;5048243;28;20037;-63
2023/01/19 11:39:43;;;;;;;19.77;7.35;;;0.00;99.90;;;;;;5049110;28;20094;-63
2023/01/19 11:42:12;;;;;;;19.58;7.30;;;0.00;99.90;;;;;;5047852;28;20049;-64
2023/01/19 11:45:10;;;;;;;17.38;6.82;;;0.00;99.90;;;;;;5049605;28;20028;-64
2023/01/19 11:47:43;;;;;;;15.20;6.60;;;0.00;99.90;;;;;;5031782;28;20041;-63
2023/01/19 11:50:23;;;;;;;14.82;6.22;;;0.30;99.90;;;;;;5047428;28;20074;-63
2023/01/19 11:53:01;;;;;;;;;;;0.50;99.90;;;;;;5049794;28;20032;-62
2023/01/19 11:56:03;;;;;;;14.70;6.47;;;0.70;99.90;;;;;;5048101;28;19919;-63
2023/01/19 11:58:30;;;;;;;16.35;6.68;;;0.60;99.90;;;;;;5038633;28;20045;-63
2023/01/19 12:01:02;;;;;;;16.40;7.03;;;0.50;99.90;;;;;;5048337;28;20078;-63
2023/01/19 12:03:41;;;;;;;17.35;6.72;;;0.50;99.90;;;;;;5047742;28;20041;-63
2023/01/19 12:06:13;;;;;;;15.90;6.85;;;0.50;99.90;;;;;;5048711;28;20052;-61
2023/01/19 12:08:51;;;;;;;23.52;7.25;;;0.30;99.90;;;;;;5048897;28;20436;-63
2023/01/19 12:11:22;;;;;;;18.98;6.93;;;0.30;99.90;;;;;;5047560;28;20032;-62
2023/01/19 12:13:48;;;;;;;18.95;7.40;;;0.30;99.90;;;;;;5041239;28;20063;-63
2023/01/19 12:16:19;;;;;;;13.90;6.10;;;0.30;99.90;;;;;;5048383;28;20029;-63
2023/01/19 12:18:58;;;;;;;13.57;5.97;;;0.30;99.90;;;;;;5041820;28;20025;-63
2023/01/19 12:21:23;;;;;;;16.30;6.55;;;0.40;99.90;;;;;;5046525;28;20027;-64
2023/01/19 12:23:57;;;;;;;16.90;6.10;;;0.40;99.90;;;;;;5049037;28;20103;-64
2023/01/19 12:26:32;;;;;;;15.02;6.20;;;0.50;99.90;;;;;;5048315;28;20079;-64
2023/01/19 12:29:04;;;;;;;17.95;6.15;;;0.50;99.90;;;;;;5048119;28;20071;-64
2023/01/19 12:31:30;;;;;;;13.85;6.25;;;0.50;99.90;;;;;;5046948;28;20021;-64
2023/01/19 12:34:26;;;;;;;15.85;6.07;;;0.50;99.90;;;;;;5043573;28;20474;-63
2023/01/19 12:36:56;;;;;;;18.90;5.93;;;0.50;99.90;;;;;;5046764;28;20033;-63
2023/01/19 12:39:24;;;;;;;15.10;6.18;;;0.40;99.90;;;;;;5048054;28;20048;-63
2023/01/19 12:42:07;;;;;;;17.35;6.32;;;0.50;99.90;;;;;;5047047;28;20048;-62
2023/01/19 12:44:33;;;;;;;15.05;6.32;;;0.50;99.90;;;;;;5047866;28;20118;-63
2023/01/19 12:47:21;;;;;;;15.73;6.18;;;0.50;99.90;;;;;;5048382;28;20041;-63
2023/01/19 12:49:50;;;;;;;15.43;5.25;;;0.50;99.90;;;;;;5048348;28;20037;-63
2023/01/19 12:52:22;;;;;;;14.70;5.70;;;0.50;99.90;;;;;;5044946;28;20061;-63